HBLVC LSZR-EDJA
Flight info
| Callsign | HBLVC |
|---|---|
| Flight time | N/A |
| Altitude | 5500 |
| Route | ZRE DCT 4736N00953E DCT 4738N01012E DCT KPT STAY1/0020 KPT DCT JASIE |
| Aircraft | DA42/L-SBDFGLORVYZ/EB2 |
Departure
| Time | 2026-04-16 10:01 |
|---|---|
| Airport | Sankt Gallen Altenrhein Airport (LSZR) |
Arrival
| Time | N/A |
|---|---|
| Airport | Memmingen Allgau Airport (EDJA) |
| Time | Latitude | Longitude | Altitude | Speed | Heading |
|---|---|---|---|---|---|
| 2026-04-16 09:19 | 47.48672 | 9.56419 | 1335 ft | 0 kts | 191° |
| 2026-04-16 09:25 | 47.48666 | 9.56417 | 1335 ft | 3 kts | 191° |
| 2026-04-16 09:25 | 47.48641 | 9.56410 | 1336 ft | 4 kts | 189° |
| 2026-04-16 09:25 | 47.48625 | 9.56376 | 1336 ft | 5 kts | 280° |
| 2026-04-16 09:25 | 47.48632 | 9.56317 | 1338 ft | 6 kts | 279° |
| 2026-04-16 09:26 | 47.48638 | 9.56251 | 1337 ft | 7 kts | 278° |
| 2026-04-16 09:26 | 47.48648 | 9.56161 | 1335 ft | 10 kts | 280° |
| 2026-04-16 09:26 | 47.48659 | 9.56062 | 1335 ft | 10 kts | 281° |
| 2026-04-16 09:26 | 47.48670 | 9.55962 | 1334 ft | 10 kts | 279° |
| 2026-04-16 09:27 | 47.48681 | 9.55863 | 1335 ft | 10 kts | 278° |
| 2026-04-16 09:27 | 47.48692 | 9.55764 | 1336 ft | 10 kts | 277° |
| 2026-04-16 09:27 | 47.48702 | 9.55666 | 1335 ft | 10 kts | 280° |
| 2026-04-16 09:27 | 47.48712 | 9.55567 | 1337 ft | 10 kts | 277° |
| 2026-04-16 09:28 | 47.48717 | 9.55468 | 1336 ft | 10 kts | 278° |
| 2026-04-16 09:28 | 47.48727 | 9.55368 | 1335 ft | 10 kts | 278° |
| 2026-04-16 09:28 | 47.48743 | 9.55271 | 1335 ft | 10 kts | 278° |
| 2026-04-16 09:28 | 47.48734 | 9.55191 | 1335 ft | 7 kts | 232° |
| 2026-04-16 09:29 | 47.48742 | 9.55168 | 1335 ft | 3 kts | 8° |
| 2026-04-16 09:29 | 47.48746 | 9.55169 | 1335 ft | 0 kts | 8° |
| 2026-04-16 09:53 | 47.48750 | 9.55171 | 1340 ft | 2 kts | 31° |
| 2026-04-16 09:53 | 47.48748 | 9.55228 | 1341 ft | 7 kts | 98° |
| 2026-04-16 09:54 | 47.48741 | 9.55303 | 1340 ft | 8 kts | 98° |
| 2026-04-16 09:54 | 47.48726 | 9.55386 | 1341 ft | 8 kts | 101° |
| 2026-04-16 09:54 | 47.48721 | 9.55473 | 1340 ft | 9 kts | 92° |
| 2026-04-16 09:54 | 47.48712 | 9.55561 | 1340 ft | 9 kts | 98° |
| 2026-04-16 09:55 | 47.48703 | 9.55652 | 1340 ft | 9 kts | 98° |
| 2026-04-16 09:55 | 47.48693 | 9.55746 | 1339 ft | 9 kts | 98° |
| 2026-04-16 09:55 | 47.48683 | 9.55841 | 1341 ft | 9 kts | 98° |
| 2026-04-16 09:55 | 47.48673 | 9.55938 | 1340 ft | 10 kts | 98° |
| 2026-04-16 09:56 | 47.48662 | 9.56036 | 1341 ft | 10 kts | 101° |
| 2026-04-16 09:56 | 47.48652 | 9.56133 | 1342 ft | 10 kts | 98° |
| 2026-04-16 09:56 | 47.48641 | 9.56235 | 1341 ft | 10 kts | 97° |
| 2026-04-16 09:56 | 47.48628 | 9.56334 | 1340 ft | 10 kts | 99° |
| 2026-04-16 09:57 | 47.48617 | 9.56436 | 1341 ft | 10 kts | 98° |
| 2026-04-16 09:57 | 47.48608 | 9.56539 | 1342 ft | 10 kts | 97° |
| 2026-04-16 09:57 | 47.48597 | 9.56642 | 1341 ft | 10 kts | 97° |
| 2026-04-16 09:57 | 47.48587 | 9.56745 | 1344 ft | 10 kts | 96° |
| 2026-04-16 09:58 | 47.48577 | 9.56848 | 1342 ft | 10 kts | 98° |
| 2026-04-16 09:58 | 47.48566 | 9.56951 | 1340 ft | 10 kts | 98° |
| 2026-04-16 09:58 | 47.48554 | 9.57047 | 1341 ft | 6 kts | 140° |
| 2026-04-16 09:58 | 47.48538 | 9.57057 | 1341 ft | 0 kts | 95° |
| 2026-04-16 10:00 | 47.48538 | 9.57061 | 1341 ft | 4 kts | 94° |
| 2026-04-16 10:00 | 47.48513 | 9.57083 | 1337 ft | 7 kts | 189° |
| 2026-04-16 10:00 | 47.48448 | 9.57070 | 1339 ft | 11 kts | 188° |
| 2026-04-16 10:01 | 47.48416 | 9.56912 | 1341 ft | 42 kts | 279° |
| 2026-04-16 10:01 | 47.48486 | 9.56227 | 1376 ft | 84 kts | 279° |
| 2026-04-16 10:01 | 47.48581 | 9.55312 | 1636 ft | 94 kts | 279° |
| 2026-04-16 10:01 | 47.48679 | 9.54379 | 2035 ft | 93 kts | 280° |
| 2026-04-16 10:02 | 47.48900 | 9.53493 | 2398 ft | 92 kts | 313° |
| 2026-04-16 10:02 | 47.49464 | 9.53097 | 2786 ft | 93 kts | 357° |
| 2026-04-16 10:02 | 47.50064 | 9.53420 | 3143 ft | 96 kts | 42° |
| 2026-04-16 10:02 | 47.50420 | 9.54259 | 3494 ft | 98 kts | 63° |
| 2026-04-16 10:03 | 47.50727 | 9.55168 | 3831 ft | 99 kts | 63° |
| 2026-04-16 10:03 | 47.51035 | 9.56080 | 4173 ft | 100 kts | 62° |
| 2026-04-16 10:03 | 47.51426 | 9.56917 | 4518 ft | 100 kts | 54° |
| 2026-04-16 10:03 | 47.51702 | 9.57889 | 4783 ft | 112 kts | 86° |
| 2026-04-16 10:04 | 47.51646 | 9.59027 | 4943 ft | 113 kts | 97° |
| 2026-04-16 10:04 | 47.51553 | 9.60185 | 5102 ft | 113 kts | 97° |
| 2026-04-16 10:04 | 47.51596 | 9.61352 | 5244 ft | 114 kts | 84° |
| 2026-04-16 10:04 | 47.51694 | 9.62516 | 5379 ft | 114 kts | 84° |
| 2026-04-16 10:05 | 47.51796 | 9.63690 | 5489 ft | 119 kts | 84° |
| 2026-04-16 10:05 | 47.51906 | 9.64966 | 5497 ft | 131 kts | 84° |
| 2026-04-16 10:05 | 47.52023 | 9.66347 | 5500 ft | 139 kts | 84° |
| 2026-04-16 10:05 | 47.52143 | 9.67799 | 5498 ft | 145 kts | 84° |
| 2026-04-16 10:06 | 47.52266 | 9.69303 | 5497 ft | 149 kts | 84° |
| 2026-04-16 10:06 | 47.52465 | 9.70810 | 5475 ft | 152 kts | 64° |
| 2026-04-16 10:06 | 47.53115 | 9.72000 | 5492 ft | 151 kts | 45° |
| 2026-04-16 10:06 | 47.53861 | 9.73098 | 5493 ft | 151 kts | 44° |
| 2026-04-16 10:07 | 47.54611 | 9.74192 | 5497 ft | 152 kts | 44° |
| 2026-04-16 10:07 | 47.55095 | 9.74983 | 5489 ft | 153 kts | 52° |
| 2026-04-16 10:07 | 47.55163 | 9.75115 | 5488 ft | 154 kts | 53° |
| 2026-04-16 10:07 | 47.55769 | 9.76471 | 5493 ft | 155 kts | 58° |
| 2026-04-16 10:08 | 47.56328 | 9.77838 | 5490 ft | 156 kts | 59° |
| 2026-04-16 10:08 | 47.56890 | 9.79217 | 5491 ft | 157 kts | 59° |
| 2026-04-16 10:08 | 47.57456 | 9.80609 | 5486 ft | 157 kts | 59° |
| 2026-04-16 10:08 | 47.58016 | 9.81990 | 5487 ft | 156 kts | 58° |
| 2026-04-16 10:09 | 47.58573 | 9.83367 | 5484 ft | 155 kts | 59° |
| 2026-04-16 10:09 | 47.59125 | 9.84738 | 5485 ft | 155 kts | 60° |
| 2026-04-16 10:09 | 47.59474 | 9.86240 | 5486 ft | 155 kts | 77° |
| 2026-04-16 10:09 | 47.59700 | 9.87803 | 5479 ft | 156 kts | 79° |
| 2026-04-16 10:10 | 47.59916 | 9.89375 | 5479 ft | 155 kts | 79° |
| 2026-04-16 10:10 | 47.60126 | 9.90926 | 5480 ft | 152 kts | 78° |
| 2026-04-16 10:10 | 47.60332 | 9.92451 | 5477 ft | 150 kts | 79° |
| 2026-04-16 10:10 | 47.60536 | 9.93958 | 5473 ft | 149 kts | 78° |
| 2026-04-16 10:11 | 47.60867 | 9.95335 | 5561 ft | 140 kts | 44° |
| 2026-04-16 10:11 | 47.61792 | 9.95810 | 5411 ft | 146 kts | 348° |
| 2026-04-16 10:11 | 47.62544 | 9.94960 | 5425 ft | 139 kts | 293° |
| 2026-04-16 10:11 | 47.62530 | 9.93596 | 5415 ft | 138 kts | 244° |
| 2026-04-16 10:12 | 47.61773 | 9.92844 | 5472 ft | 137 kts | 184° |
| 2026-04-16 10:12 | 47.60925 | 9.93396 | 5531 ft | 138 kts | 130° |
| 2026-04-16 10:12 | 47.60733 | 9.94749 | 5504 ft | 143 kts | 79° |
| 2026-04-16 10:12 | 47.60886 | 9.96263 | 5434 ft | 147 kts | 95° |
| 2026-04-16 10:13 | 47.60407 | 9.97482 | 5472 ft | 141 kts | 151° |
| 2026-04-16 10:13 | 47.59474 | 9.97525 | 5430 ft | 138 kts | 213° |
| 2026-04-16 10:13 | 47.58992 | 9.96404 | 5452 ft | 135 kts | 265° |
| 2026-04-16 10:13 | 47.59392 | 9.95163 | 5362 ft | 143 kts | 326° |
| 2026-04-16 10:14 | 47.60326 | 9.95067 | 5447 ft | 140 kts | 24° |
| 2026-04-16 10:14 | 47.60897 | 9.96176 | 5488 ft | 139 kts | 78° |
| 2026-04-16 10:14 | 47.61086 | 9.97585 | 5509 ft | 140 kts | 79° |
| 2026-04-16 10:14 | 47.61259 | 9.99039 | 5401 ft | 148 kts | 85° |
| 2026-04-16 10:15 | 47.60923 | 10.00415 | 5287 ft | 144 kts | 137° |
| 2026-04-16 10:15 | 47.60020 | 10.00875 | 5144 ft | 141 kts | 189° |
| 2026-04-16 10:15 | 47.59240 | 10.00066 | 4916 ft | 143 kts | 245° |
| 2026-04-16 10:15 | 47.59275 | 9.98741 | 4836 ft | 138 kts | 300° |
| 2026-04-16 10:16 | 47.60049 | 9.97999 | 4726 ft | 139 kts | 353° |
| 2026-04-16 10:16 | 47.60950 | 9.98436 | 4566 ft | 143 kts | 42° |
| 2026-04-16 10:16 | 47.61416 | 9.99724 | 4492 ft | 139 kts | 78° |
| 2026-04-16 10:16 | 47.61592 | 10.01110 | 4447 ft | 140 kts | 80° |
| 2026-04-16 10:17 | 47.61756 | 10.02514 | 4500 ft | 135 kts | 79° |
| 2026-04-16 10:17 | 47.61973 | 10.03801 | 4801 ft | 114 kts | 57° |
| 2026-04-16 10:17 | 47.62610 | 10.04332 | 5120 ft | 112 kts | 355° |
| 2026-04-16 10:17 | 47.63272 | 10.03745 | 5320 ft | 115 kts | 298° |
| 2026-04-16 10:18 | 47.63240 | 10.02689 | 5696 ft | 106 kts | 230° |
| 2026-04-16 10:18 | 47.62572 | 10.02411 | 5974 ft | 110 kts | 160° |
| 2026-04-16 10:18 | 47.62182 | 10.03373 | 6173 ft | 120 kts | 87° |
| 2026-04-16 10:18 | 47.62306 | 10.04585 | 6399 ft | 125 kts | 79° |
| 2026-04-16 10:19 | 47.62475 | 10.05909 | 6487 ft | 131 kts | 80° |
| 2026-04-16 10:19 | 47.62626 | 10.07219 | 6520 ft | 129 kts | 105° |
| 2026-04-16 10:19 | 47.62393 | 10.06861 | 6264 ft | 132 kts | 341° |
| 2026-04-16 10:19 | 47.62859 | 10.07782 | 6394 ft | 127 kts | 80° |
| 2026-04-16 10:20 | 47.63026 | 10.09122 | 6325 ft | 134 kts | 80° |
| 2026-04-16 10:20 | 47.63306 | 10.10438 | 6129 ft | 138 kts | 49° |
| 2026-04-16 10:20 | 47.64151 | 10.10936 | 5939 ft | 139 kts | 350° |
| 2026-04-16 10:20 | 47.64843 | 10.10055 | 5726 ft | 136 kts | 281° |
| 2026-04-16 10:21 | 47.64478 | 10.08859 | 5492 ft | 135 kts | 210° |
| 2026-04-16 10:21 | 47.63574 | 10.08974 | 5146 ft | 145 kts | 140° |
| 2026-04-16 10:21 | 47.63292 | 10.10355 | 4804 ft | 149 kts | 81° |
| 2026-04-16 10:21 | 47.63512 | 10.11850 | 4570 ft | 146 kts | 77° |
| 2026-04-16 10:22 | 47.63710 | 10.13215 | 4696 ft | 134 kts | 78° |
| 2026-04-16 10:22 | 47.63902 | 10.14658 | 4577 ft | 148 kts | 78° |
| 2026-04-16 10:22 | 47.64103 | 10.16168 | 4466 ft | 156 kts | 78° |
| 2026-04-16 10:22 | 47.64310 | 10.17740 | 4462 ft | 154 kts | 78° |
| 2026-04-16 10:23 | 47.64515 | 10.19298 | 4469 ft | 153 kts | 77° |
| 2026-04-16 10:23 | 47.65010 | 10.20673 | 4444 ft | 153 kts | 49° |
| 2026-04-16 10:23 | 47.65737 | 10.21845 | 4391 ft | 155 kts | 45° |
| 2026-04-16 10:23 | 47.66476 | 10.22990 | 4342 ft | 156 kts | 46° |
| 2026-04-16 10:24 | 47.67235 | 10.24179 | 4289 ft | 157 kts | 46° |
| 2026-04-16 10:24 | 47.67756 | 10.25557 | 4235 ft | 158 kts | 77° |
| 2026-04-16 10:24 | 47.67935 | 10.27164 | 4192 ft | 158 kts | 80° |
| 2026-04-16 10:24 | 47.68068 | 10.28240 | 4159 ft | 158 kts | 79° |
| 2026-04-16 10:25 | 47.68271 | 10.29827 | 4098 ft | 153 kts | 79° |
| 2026-04-16 10:25 | 47.68468 | 10.31368 | 4053 ft | 151 kts | 79° |
| 2026-04-16 10:25 | 47.68666 | 10.32906 | 4001 ft | 151 kts | 79° |
| 2026-04-16 10:25 | 47.68862 | 10.34434 | 3963 ft | 150 kts | 79° |
| 2026-04-16 10:26 | 47.69321 | 10.35766 | 3952 ft | 146 kts | 40° |
| 2026-04-16 10:26 | 47.70238 | 10.36220 | 3955 ft | 142 kts | 355° |
| 2026-04-16 10:26 | 47.71208 | 10.36009 | 3968 ft | 140 kts | 349° |
| 2026-04-16 10:26 | 47.72165 | 10.35750 | 3967 ft | 139 kts | 349° |
| 2026-04-16 10:27 | 47.73085 | 10.35499 | 3945 ft | 140 kts | 349° |
| 2026-04-16 10:27 | 47.74039 | 10.35236 | 3965 ft | 137 kts | 349° |
| 2026-04-16 10:27 | 47.74979 | 10.34973 | 3956 ft | 137 kts | 348° |
| 2026-04-16 10:27 | 47.75919 | 10.35028 | 3965 ft | 137 kts | 23° |
| 2026-04-16 10:28 | 47.76566 | 10.36033 | 3969 ft | 138 kts | 69° |
| 2026-04-16 10:28 | 47.76543 | 10.37430 | 3972 ft | 139 kts | 114° |
| 2026-04-16 10:28 | 47.76057 | 10.38669 | 3967 ft | 139 kts | 123° |
| 2026-04-16 10:28 | 47.75522 | 10.39880 | 3968 ft | 140 kts | 124° |
| 2026-04-16 10:29 | 47.74985 | 10.41090 | 3970 ft | 140 kts | 124° |
| 2026-04-16 10:29 | 47.74498 | 10.42343 | 3971 ft | 140 kts | 113° |
| 2026-04-16 10:29 | 47.74315 | 10.43767 | 3970 ft | 140 kts | 96° |
| 2026-04-16 10:29 | 47.74233 | 10.45212 | 3970 ft | 140 kts | 94° |
| 2026-04-16 10:30 | 47.74171 | 10.46638 | 3969 ft | 140 kts | 93° |
| 2026-04-16 10:30 | 47.74115 | 10.48103 | 3968 ft | 140 kts | 93° |
| 2026-04-16 10:30 | 47.74063 | 10.49545 | 3969 ft | 140 kts | 93° |
| 2026-04-16 10:30 | 47.74013 | 10.50970 | 3970 ft | 140 kts | 93° |
| 2026-04-16 10:31 | 47.73961 | 10.52434 | 3973 ft | 140 kts | 92° |
| 2026-04-16 10:31 | 47.73910 | 10.53880 | 3970 ft | 140 kts | 92° |
| 2026-04-16 10:31 | 47.73860 | 10.55304 | 3971 ft | 140 kts | 93° |
| 2026-04-16 10:31 | 47.73515 | 10.56637 | 3970 ft | 140 kts | 126° |
| 2026-04-16 10:32 | 47.72908 | 10.57771 | 3968 ft | 141 kts | 129° |
| 2026-04-16 10:32 | 47.72281 | 10.58889 | 3966 ft | 141 kts | 130° |
| 2026-04-16 10:32 | 47.71647 | 10.60014 | 3968 ft | 142 kts | 130° |
| 2026-04-16 10:32 | 47.71182 | 10.61285 | 3953 ft | 142 kts | 97° |
| 2026-04-16 10:33 | 47.71422 | 10.62657 | 3960 ft | 140 kts | 52° |
| 2026-04-16 10:33 | 47.72224 | 10.63354 | 3959 ft | 138 kts | 7° |
| 2026-04-16 10:33 | 47.73124 | 10.62993 | 3961 ft | 137 kts | 322° |
| 2026-04-16 10:33 | 47.73579 | 10.61782 | 3970 ft | 137 kts | 279° |
| 2026-04-16 10:34 | 47.73669 | 10.60363 | 3964 ft | 139 kts | 274° |
| 2026-04-16 10:34 | 47.73731 | 10.58926 | 3966 ft | 140 kts | 274° |
| 2026-04-16 10:34 | 47.73784 | 10.57481 | 3966 ft | 140 kts | 273° |
| 2026-04-16 10:34 | 47.73835 | 10.56052 | 3965 ft | 140 kts | 274° |
| 2026-04-16 10:35 | 47.73885 | 10.54614 | 3967 ft | 139 kts | 273° |
| 2026-04-16 10:35 | 47.73935 | 10.53178 | 3966 ft | 139 kts | 273° |
| 2026-04-16 10:35 | 47.73986 | 10.51738 | 3967 ft | 139 kts | 273° |
| 2026-04-16 10:35 | 47.74036 | 10.50300 | 3966 ft | 139 kts | 274° |
| 2026-04-16 10:36 | 47.74087 | 10.48866 | 3970 ft | 139 kts | 274° |
| 2026-04-16 10:36 | 47.74138 | 10.47427 | 3968 ft | 139 kts | 273° |
| 2026-04-16 10:36 | 47.74189 | 10.45991 | 3971 ft | 139 kts | 273° |
| 2026-04-16 10:36 | 47.74239 | 10.44552 | 3971 ft | 139 kts | 273° |
| 2026-04-16 10:37 | 47.74162 | 10.43125 | 3952 ft | 141 kts | 247° |
| 2026-04-16 10:37 | 47.73483 | 10.42129 | 3962 ft | 140 kts | 201° |
| 2026-04-16 10:37 | 47.72549 | 10.42131 | 3962 ft | 139 kts | 156° |
| 2026-04-16 10:37 | 47.71883 | 10.43111 | 3966 ft | 138 kts | 111° |
| 2026-04-16 10:38 | 47.71884 | 10.44494 | 3973 ft | 137 kts | 66° |
| 2026-04-16 10:38 | 47.72549 | 10.45460 | 3974 ft | 137 kts | 22° |
| 2026-04-16 10:38 | 47.73442 | 10.45970 | 3953 ft | 138 kts | 34° |
| 2026-04-16 10:38 | 47.73970 | 10.47122 | 3978 ft | 137 kts | 72° |
| 2026-04-16 10:39 | 47.74044 | 10.48526 | 3976 ft | 137 kts | 89° |
| 2026-04-16 10:39 | 47.74029 | 10.49929 | 3969 ft | 137 kts | 91° |
| 2026-04-16 10:39 | 47.73993 | 10.51348 | 3965 ft | 137 kts | 92° |
| 2026-04-16 10:39 | 47.73948 | 10.52762 | 3967 ft | 137 kts | 92° |
| 2026-04-16 10:40 | 47.73909 | 10.54181 | 3961 ft | 137 kts | 92° |
| 2026-04-16 10:40 | 47.73871 | 10.55596 | 3970 ft | 137 kts | 92° |
| 2026-04-16 10:40 | 47.73838 | 10.57008 | 3969 ft | 137 kts | 88° |
| 2026-04-16 10:40 | 47.74199 | 10.58292 | 3973 ft | 137 kts | 50° |
| 2026-04-16 10:41 | 47.74838 | 10.59359 | 3973 ft | 138 kts | 48° |
| 2026-04-16 10:41 | 47.75485 | 10.60414 | 3972 ft | 138 kts | 48° |
| 2026-04-16 10:41 | 47.76134 | 10.61472 | 3970 ft | 138 kts | 48° |
| 2026-04-16 10:41 | 47.76715 | 10.62588 | 3956 ft | 138 kts | 69° |
| 2026-04-16 10:42 | 47.76689 | 10.63972 | 3966 ft | 137 kts | 114° |
| 2026-04-16 10:42 | 47.76008 | 10.64900 | 3968 ft | 139 kts | 159° |
| 2026-04-16 10:42 | 47.75061 | 10.64845 | 3974 ft | 140 kts | 204° |
| 2026-04-16 10:42 | 47.74340 | 10.63876 | 3969 ft | 142 kts | 233° |
| 2026-04-16 10:43 | 47.73862 | 10.62595 | 3973 ft | 142 kts | 250° |
| 2026-04-16 10:43 | 47.73710 | 10.61160 | 3977 ft | 141 kts | 270° |
| 2026-04-16 10:43 | 47.73725 | 10.59681 | 3970 ft | 144 kts | 273° |
| 2026-04-16 10:43 | 47.73787 | 10.58215 | 3971 ft | 144 kts | 275° |
| 2026-04-16 10:44 | 47.73669 | 10.56741 | 3963 ft | 145 kts | 249° |
| 2026-04-16 10:44 | 47.73275 | 10.55364 | 3967 ft | 145 kts | 247° |
| 2026-04-16 10:44 | 47.72877 | 10.53995 | 3967 ft | 144 kts | 247° |
| 2026-04-16 10:44 | 47.72482 | 10.52627 | 3962 ft | 144 kts | 247° |
| 2026-04-16 10:45 | 47.72090 | 10.51267 | 3964 ft | 143 kts | 246° |
| 2026-04-16 10:45 | 47.71698 | 10.49910 | 3970 ft | 143 kts | 246° |
| 2026-04-16 10:45 | 47.71305 | 10.48550 | 3971 ft | 143 kts | 247° |
| 2026-04-16 10:45 | 47.70911 | 10.47190 | 3973 ft | 144 kts | 246° |
| 2026-04-16 10:46 | 47.70517 | 10.45827 | 3968 ft | 144 kts | 247° |
| 2026-04-16 10:46 | 47.70123 | 10.44460 | 3967 ft | 143 kts | 247° |
| 2026-04-16 10:46 | 47.69735 | 10.43124 | 3968 ft | 142 kts | 246° |
| 2026-04-16 10:46 | 47.69400 | 10.41762 | 3960 ft | 142 kts | 264° |
| 2026-04-16 10:47 | 47.69510 | 10.40648 | 3974 ft | 139 kts | 289° |
| 2026-04-16 10:47 | 47.69833 | 10.39294 | 3976 ft | 140 kts | 291° |
| 2026-04-16 10:47 | 47.70232 | 10.37982 | 3966 ft | 139 kts | 310° |
| 2026-04-16 10:47 | 47.71026 | 10.37222 | 3977 ft | 136 kts | 339° |
| 2026-04-16 10:48 | 47.71898 | 10.36668 | 3976 ft | 137 kts | 339° |
| 2026-04-16 10:48 | 47.72778 | 10.36112 | 3974 ft | 137 kts | 339° |
| 2026-04-16 10:48 | 47.73653 | 10.35560 | 3979 ft | 136 kts | 339° |
| 2026-04-16 10:48 | 47.74531 | 10.35005 | 3980 ft | 138 kts | 339° |
| 2026-04-16 10:49 | 47.75413 | 10.34449 | 3973 ft | 136 kts | 339° |
| 2026-04-16 10:49 | 47.76273 | 10.33905 | 3961 ft | 137 kts | 340° |
| 2026-04-16 10:49 | 47.77145 | 10.33356 | 3974 ft | 136 kts | 339° |
| 2026-04-16 10:49 | 47.78020 | 10.32806 | 3976 ft | 137 kts | 339° |
| 2026-04-16 10:50 | 47.78897 | 10.32256 | 3971 ft | 136 kts | 339° |
| 2026-04-16 10:50 | 47.79769 | 10.31706 | 3974 ft | 136 kts | 339° |
| 2026-04-16 10:50 | 47.80647 | 10.31154 | 3978 ft | 137 kts | 339° |
| 2026-04-16 10:50 | 47.81529 | 10.30597 | 3973 ft | 139 kts | 339° |
| 2026-04-16 10:51 | 47.82421 | 10.30033 | 3976 ft | 140 kts | 339° |
| 2026-04-16 10:51 | 47.83333 | 10.29461 | 3963 ft | 142 kts | 339° |
| 2026-04-16 10:51 | 47.84237 | 10.28886 | 3967 ft | 142 kts | 340° |
| 2026-04-16 10:51 | 47.85139 | 10.28314 | 3973 ft | 143 kts | 340° |
| 2026-04-16 10:52 | 47.86058 | 10.27737 | 3967 ft | 143 kts | 340° |
| 2026-04-16 10:52 | 47.86964 | 10.27160 | 3974 ft | 140 kts | 339° |
| 2026-04-16 10:52 | 47.87368 | 10.26190 | 4012 ft | 139 kts | 210° |
| 2026-04-16 10:52 | 47.87057 | 10.26875 | 3980 ft | 132 kts | 29° |
| 2026-04-16 10:53 | 47.88005 | 10.26638 | 3881 ft | 148 kts | 354° |
| 2026-04-16 10:53 | 47.88349 | 10.27450 | 4066 ft | 130 kts | 139° |
| 2026-04-16 10:53 | 47.87729 | 10.26787 | 3928 ft | 152 kts | 295° |
| 2026-04-16 10:53 | 47.88587 | 10.25973 | 3870 ft | 152 kts | 341° |
| 2026-04-16 10:54 | 47.89551 | 10.25421 | 3959 ft | 146 kts | 339° |
| 2026-04-16 10:54 | 47.90252 | 10.24319 | 3968 ft | 154 kts | 294° |
| 2026-04-16 10:54 | 47.90260 | 10.22729 | 3960 ft | 157 kts | 248° |
| 2026-04-16 10:54 | 47.89735 | 10.21295 | 3964 ft | 159 kts | 237° |
| 2026-04-16 10:55 | 47.89156 | 10.19888 | 3967 ft | 159 kts | 239° |
| 2026-04-16 10:55 | 47.88505 | 10.18579 | 3957 ft | 158 kts | 214° |
| 2026-04-16 10:55 | 47.87492 | 10.18161 | 3959 ft | 150 kts | 170° |
| 2026-04-16 10:55 | 47.86628 | 10.18866 | 3957 ft | 142 kts | 124° |
| 2026-04-16 10:56 | 47.86386 | 10.20218 | 3961 ft | 137 kts | 80° |
| 2026-04-16 10:56 | 47.86742 | 10.21553 | 3966 ft | 141 kts | 65° |
| 2026-04-16 10:56 | 47.87180 | 10.22842 | 3964 ft | 142 kts | 64° |
| 2026-04-16 10:56 | 47.87753 | 10.24027 | 3954 ft | 144 kts | 37° |
| 2026-04-16 10:57 | 47.88738 | 10.24372 | 3880 ft | 154 kts | 360° |
| 2026-04-16 10:57 | 47.89805 | 10.24263 | 3754 ft | 152 kts | 0° |
| 2026-04-16 10:57 | 47.90862 | 10.24132 | 3635 ft | 152 kts | 359° |
| 2026-04-16 10:57 | 47.91915 | 10.24004 | 3504 ft | 150 kts | 358° |
| 2026-04-16 10:58 | 47.92957 | 10.23886 | 3368 ft | 149 kts | 359° |
| 2026-04-16 10:58 | 47.93991 | 10.23769 | 3221 ft | 148 kts | 358° |
| 2026-04-16 10:58 | 47.95014 | 10.23666 | 3068 ft | 147 kts | 358° |
| 2026-04-16 10:58 | 47.95996 | 10.23760 | 3053 ft | 139 kts | 23° |
| 2026-04-16 10:59 | 47.96673 | 10.24670 | 3073 ft | 132 kts | 57° |
| 2026-04-16 10:59 | 47.97159 | 10.25831 | 3069 ft | 128 kts | 59° |
| 2026-04-16 10:59 | 47.97610 | 10.26950 | 3069 ft | 127 kts | 60° |
| 2026-04-16 10:59 | 47.98069 | 10.28087 | 3067 ft | 126 kts | 60° |
| 2026-04-16 11:00 | 47.98519 | 10.29203 | 3060 ft | 125 kts | 60° |
| 2026-04-16 11:00 | 47.99042 | 10.30187 | 2915 ft | 121 kts | 32° |
| 2026-04-16 11:00 | 47.99841 | 10.30399 | 2768 ft | 118 kts | 344° |
| 2026-04-16 11:00 | 48.00467 | 10.29720 | 2679 ft | 110 kts | 297° |
| 2026-04-16 11:01 | 48.00585 | 10.28653 | 2615 ft | 105 kts | 266° |
| 2026-04-16 11:01 | 48.00320 | 10.27626 | 2431 ft | 109 kts | 243° |
| 2026-04-16 11:01 | 47.99958 | 10.26661 | 2304 ft | 104 kts | 242° |
| 2026-04-16 11:01 | 47.99591 | 10.25738 | 2144 ft | 102 kts | 242° |
| 2026-04-16 11:02 | 47.99246 | 10.24870 | 2063 ft | 85 kts | 242° |
| 2026-04-16 11:02 | 47.99001 | 10.24250 | 2064 ft | 69 kts | 239° |
| 2026-04-16 11:02 | 47.98708 | 10.23553 | 2273 ft | 83 kts | 240° |
| 2026-04-16 11:02 | 47.98401 | 10.22768 | 2585 ft | 88 kts | 242° |
| 2026-04-16 11:03 | 47.98077 | 10.21902 | 2641 ft | 100 kts | 247° |
| 2026-04-16 11:03 | 47.98083 | 10.20898 | 2787 ft | 103 kts | 293° |
| 2026-04-16 11:03 | 47.99310 | 10.20197 | 3074 ft | 106 kts | 27° |
| 2026-04-16 11:04 | 47.99847 | 10.20987 | 3075 ft | 112 kts | 59° |
| 2026-04-16 11:04 | 48.00256 | 10.22001 | 3072 ft | 115 kts | 60° |
| 2026-04-16 11:04 | 48.00665 | 10.23045 | 3080 ft | 115 kts | 61° |
| 2026-04-16 11:04 | 48.01063 | 10.24064 | 3063 ft | 112 kts | 60° |
| 2026-04-16 11:05 | 48.01453 | 10.25053 | 3060 ft | 110 kts | 61° |
| 2026-04-16 11:05 | 48.01830 | 10.26016 | 3055 ft | 107 kts | 61° |
| 2026-04-16 11:05 | 48.02116 | 10.27015 | 2882 ft | 108 kts | 89° |
| 2026-04-16 11:05 | 48.01842 | 10.28057 | 2688 ft | 111 kts | 133° |
| 2026-04-16 11:06 | 48.01196 | 10.28554 | 2616 ft | 96 kts | 183° |
| 2026-04-16 11:06 | 48.00629 | 10.28214 | 2498 ft | 85 kts | 224° |
| 2026-04-16 11:06 | 48.00285 | 10.27506 | 2390 ft | 84 kts | 242° |
| 2026-04-16 11:06 | 47.99996 | 10.26761 | 2334 ft | 83 kts | 241° |
| 2026-04-16 11:07 | 47.99799 | 10.26259 | 2259 ft | 86 kts | 242° |
| 2026-04-16 11:07 | 47.99400 | 10.25257 | 2100 ft | 83 kts | 243° |
| 2026-04-16 11:07 | 47.99113 | 10.24538 | 2329 ft | 82 kts | 240° |
| 2026-04-16 11:07 | 47.98800 | 10.23755 | 2578 ft | 88 kts | 240° |
| 2026-04-16 11:08 | 47.98479 | 10.22956 | 2644 ft | 96 kts | 241° |
| 2026-04-16 11:08 | 47.98189 | 10.22418 | 2680 ft | 103 kts | 217° |
| 2026-04-16 11:08 | 47.97497 | 10.22202 | 2836 ft | 105 kts | 169° |
| 2026-04-16 11:08 | 47.96899 | 10.22803 | 2977 ft | 107 kts | 122° |
| 2026-04-16 11:09 | 47.96767 | 10.23853 | 3067 ft | 111 kts | 78° |
| 2026-04-16 11:09 | 47.97106 | 10.24945 | 3065 ft | 121 kts | 62° |
| 2026-04-16 11:09 | 47.97524 | 10.26063 | 3069 ft | 126 kts | 61° |
| 2026-04-16 11:09 | 47.97956 | 10.27197 | 3085 ft | 122 kts | 61° |
| 2026-04-16 11:10 | 47.98371 | 10.28277 | 3061 ft | 116 kts | 61° |
| 2026-04-16 11:10 | 47.98763 | 10.29283 | 2991 ft | 108 kts | 57° |
| 2026-04-16 11:10 | 47.99361 | 10.29866 | 2905 ft | 103 kts | 9° |
| 2026-04-16 11:10 | 48.00051 | 10.29637 | 2746 ft | 103 kts | 322° |
| 2026-04-16 11:11 | 48.00409 | 10.28757 | 2605 ft | 100 kts | 280° |
| 2026-04-16 11:11 | 48.00328 | 10.27746 | 2451 ft | 101 kts | 245° |
| 2026-04-16 11:11 | 48.00000 | 10.26831 | 2327 ft | 100 kts | 245° |
| 2026-04-16 11:11 | 47.99683 | 10.25965 | 2198 ft | 93 kts | 241° |
| 2026-04-16 11:12 | 47.99363 | 10.25164 | 2072 ft | 87 kts | 242° |
| 2026-04-16 11:12 | 47.99112 | 10.24530 | 2062 ft | 54 kts | 238° |
| 2026-04-16 11:12 | 47.98860 | 10.23898 | 2112 ft | 85 kts | 239° |
| 2026-04-16 11:12 | 47.98535 | 10.23108 | 2372 ft | 94 kts | 243° |
| 2026-04-16 11:13 | 47.98201 | 10.22246 | 2568 ft | 98 kts | 241° |
| 2026-04-16 11:13 | 47.97751 | 10.21472 | 2684 ft | 102 kts | 208° |
| 2026-04-16 11:13 | 47.97046 | 10.21406 | 2814 ft | 107 kts | 162° |
| 2026-04-16 11:13 | 47.96490 | 10.22127 | 2969 ft | 107 kts | 124° |
| 2026-04-16 11:14 | 47.96074 | 10.23034 | 3091 ft | 109 kts | 126° |
| 2026-04-16 11:14 | 47.95452 | 10.23591 | 3276 ft | 104 kts | 165° |
| 2026-04-16 11:14 | 47.94751 | 10.23766 | 3425 ft | 99 kts | 168° |
| 2026-04-16 11:14 | 47.94096 | 10.23908 | 3566 ft | 94 kts | 167° |
| 2026-04-16 11:15 | 47.93467 | 10.24046 | 3707 ft | 88 kts | 166° |
| 2026-04-16 11:15 | 47.92864 | 10.24173 | 3848 ft | 87 kts | 168° |
| 2026-04-16 11:15 | 47.92221 | 10.24316 | 3908 ft | 100 kts | 168° |
| 2026-04-16 11:15 | 47.91516 | 10.24468 | 3942 ft | 105 kts | 167° |
| 2026-04-16 11:16 | 47.90766 | 10.24593 | 3959 ft | 115 kts | 184° |
| 2026-04-16 11:16 | 47.90058 | 10.24032 | 3975 ft | 124 kts | 229° |
| 2026-04-16 11:16 | 47.89615 | 10.22891 | 3965 ft | 131 kts | 243° |
| 2026-04-16 11:16 | 47.89209 | 10.21655 | 3969 ft | 134 kts | 244° |
| 2026-04-16 11:17 | 47.88799 | 10.20402 | 3965 ft | 135 kts | 244° |
| 2026-04-16 11:17 | 47.88385 | 10.19141 | 3963 ft | 135 kts | 244° |
| 2026-04-16 11:17 | 47.87977 | 10.17891 | 3968 ft | 135 kts | 244° |
| 2026-04-16 11:17 | 47.87567 | 10.16638 | 3969 ft | 134 kts | 244° |
| 2026-04-16 11:18 | 47.87159 | 10.15400 | 3970 ft | 136 kts | 244° |
| 2026-04-16 11:18 | 47.86744 | 10.14131 | 3977 ft | 137 kts | 244° |
| 2026-04-16 11:18 | 47.86328 | 10.12840 | 3967 ft | 139 kts | 244° |
| 2026-04-16 11:18 | 47.85910 | 10.11545 | 3969 ft | 139 kts | 244° |
| 2026-04-16 11:19 | 47.85465 | 10.10269 | 3963 ft | 138 kts | 236° |
| 2026-04-16 11:19 | 47.84830 | 10.09209 | 3962 ft | 137 kts | 218° |
| 2026-04-16 11:19 | 47.84005 | 10.08468 | 3893 ft | 140 kts | 200° |
| 2026-04-16 11:19 | 47.83054 | 10.08117 | 3815 ft | 142 kts | 184° |
| 2026-04-16 11:20 | 47.82077 | 10.08186 | 3736 ft | 142 kts | 167° |
| 2026-04-16 11:20 | 47.81134 | 10.08682 | 3663 ft | 143 kts | 150° |
| 2026-04-16 11:20 | 47.80328 | 10.09553 | 3586 ft | 144 kts | 134° |
| 2026-04-16 11:20 | 47.79727 | 10.10712 | 3508 ft | 144 kts | 118° |
| 2026-04-16 11:21 | 47.79368 | 10.12075 | 3408 ft | 139 kts | 102° |
| 2026-04-16 11:21 | 47.79384 | 10.13469 | 3301 ft | 136 kts | 68° |
| 2026-04-16 11:21 | 47.80024 | 10.14416 | 3266 ft | 130 kts | 21° |
| 2026-04-16 11:21 | 47.80889 | 10.14382 | 3265 ft | 125 kts | 335° |
| 2026-04-16 11:22 | 47.81460 | 10.13459 | 3264 ft | 123 kts | 291° |
| 2026-04-16 11:22 | 47.81686 | 10.12245 | 3274 ft | 122 kts | 284° |
| 2026-04-16 11:22 | 47.81882 | 10.11020 | 3276 ft | 122 kts | 284° |
| 2026-04-16 11:22 | 47.82077 | 10.09776 | 3208 ft | 127 kts | 284° |
| 2026-04-16 11:23 | 47.82384 | 10.08503 | 3071 ft | 134 kts | 293° |
| 2026-04-16 11:23 | 47.82860 | 10.07339 | 2957 ft | 130 kts | 308° |
| 2026-04-16 11:23 | 47.83424 | 10.06297 | 2806 ft | 127 kts | 308° |
| 2026-04-16 11:23 | 47.83974 | 10.05313 | 2767 ft | 118 kts | 309° |
| 2026-04-16 11:24 | 47.84485 | 10.04399 | 2767 ft | 113 kts | 309° |
| 2026-04-16 11:24 | 47.85095 | 10.03755 | 2765 ft | 112 kts | 358° |
| 2026-04-16 11:24 | 47.85754 | 10.04262 | 2747 ft | 113 kts | 43° |
| 2026-04-16 11:24 | 47.86228 | 10.05165 | 2710 ft | 107 kts | 38° |
| 2026-04-16 11:25 | 47.86905 | 10.05290 | 2596 ft | 102 kts | 334° |
| 2026-04-16 11:25 | 47.87171 | 10.04564 | 2537 ft | 86 kts | 258° |
| 2026-04-16 11:25 | 47.86935 | 10.03715 | 2387 ft | 90 kts | 236° |
| 2026-04-16 11:25 | 47.86593 | 10.02987 | 2290 ft | 86 kts | 239° |
| 2026-04-16 11:26 | 47.86256 | 10.02248 | 2162 ft | 85 kts | 238° |
| 2026-04-16 11:26 | 47.85937 | 10.01545 | 2335 ft | 80 kts | 235° |
| 2026-04-16 11:26 | 47.85578 | 10.00834 | 2618 ft | 88 kts | 233° |
| 2026-04-16 11:26 | 47.85224 | 10.00084 | 2746 ft | 92 kts | 236° |
| 2026-04-16 11:27 | 47.84878 | 9.99337 | 2759 ft | 88 kts | 236° |
| 2026-04-16 11:27 | 47.84345 | 9.99004 | 2745 ft | 91 kts | 164° |
| 2026-04-16 11:27 | 47.84040 | 9.99753 | 2747 ft | 94 kts | 84° |
| 2026-04-16 11:27 | 47.84181 | 10.00692 | 2764 ft | 93 kts | 69° |
| 2026-04-16 11:28 | 47.84494 | 10.01541 | 2777 ft | 94 kts | 57° |
| 2026-04-16 11:28 | 47.84845 | 10.02382 | 2779 ft | 96 kts | 57° |
| 2026-04-16 11:28 | 47.85204 | 10.03234 | 2775 ft | 98 kts | 57° |
| 2026-04-16 11:28 | 47.85587 | 10.04101 | 2763 ft | 100 kts | 54° |
| 2026-04-16 11:29 | 47.85985 | 10.04942 | 2761 ft | 97 kts | 52° |
| 2026-04-16 11:29 | 47.86534 | 10.05418 | 2754 ft | 92 kts | 4° |
| 2026-04-16 11:29 | 47.87062 | 10.05024 | 2685 ft | 85 kts | 298° |
| 2026-04-16 11:29 | 47.87127 | 10.04173 | 2519 ft | 87 kts | 251° |
| 2026-04-16 11:30 | 47.86789 | 10.03422 | 2386 ft | 85 kts | 236° |
| 2026-04-16 11:30 | 47.86468 | 10.02721 | 2277 ft | 83 kts | 239° |
| 2026-04-16 11:30 | 47.86153 | 10.02016 | 2108 ft | 73 kts | 238° |
| 2026-04-16 11:30 | 47.85939 | 10.01538 | 2091 ft | 41 kts | 236° |
| 2026-04-16 11:31 | 47.85818 | 10.01269 | 2092 ft | 20 kts | 236° |
| 2026-04-16 11:31 | 47.85788 | 10.01183 | 2092 ft | 6 kts | 298° |
| 2026-04-16 11:31 | 47.85821 | 10.01144 | 2092 ft | 6 kts | 326° |
| 2026-04-16 11:31 | 47.85853 | 10.01112 | 2092 ft | 5 kts | 326° |
| 2026-04-16 11:32 | 47.85879 | 10.01088 | 2092 ft | 4 kts | 354° |
| 2026-04-16 11:32 | 47.85877 | 10.01117 | 2092 ft | 4 kts | 147° |
| 2026-04-16 11:32 | 47.85871 | 10.01124 | 2092 ft | 0 kts | 142° |